createdAt,value
2023-02-19T00:05:22.159Z,9.65
2023-02-19T00:10:44.883Z,10.90
2023-02-19T00:16:07.300Z,9.05
2023-02-19T00:21:31.766Z,11.50
2023-02-19T00:26:55.419Z,11.15
2023-02-19T00:32:17.740Z,11.43
2023-02-19T00:37:40.002Z,9.55
2023-02-19T00:43:02.216Z,10.35
2023-02-19T00:48:24.427Z,17.62
2023-02-19T00:53:46.967Z,11.03
2023-02-19T00:59:09.853Z,12.63
2023-02-19T01:04:32.225Z,11.30
2023-02-19T01:09:54.592Z,11.60
2023-02-19T01:15:17.138Z,16.45
2023-02-19T01:20:40.073Z,12.20
2023-02-19T01:26:02.426Z,10.00
2023-02-19T01:31:29.035Z,7.92
2023-02-19T01:36:52.341Z,14.13
2023-02-19T01:42:21.327Z,10.58
2023-02-19T01:47:43.599Z,14.20
2023-02-19T01:53:07.635Z,11.70
2023-02-19T01:58:31.027Z,11.45
2023-02-19T02:03:56.472Z,12.55
2023-02-19T02:09:37.086Z,15.55
2023-02-19T02:15:01.084Z,13.03
2023-02-19T02:20:47.397Z,15.53
2023-02-19T02:26:47.513Z,14.80
2023-02-19T02:32:26.224Z,14.53
2023-02-19T02:37:51.919Z,13.48
2023-02-19T02:43:15.732Z,16.30
2023-02-19T02:49:01.510Z,13.20
2023-02-19T02:54:57.590Z,14.13
2023-02-19T03:00:21.889Z,9.68
2023-02-19T03:05:52.402Z,7.65
2023-02-19T03:11:38.493Z,13.70
2023-02-19T03:17:23.712Z,15.23
2023-02-19T03:22:49.361Z,13.08
2023-02-19T03:28:17.682Z,14.50
2023-02-19T03:33:42.226Z,13.40
2023-02-19T03:39:13.963Z,13.88
2023-02-19T03:44:55.096Z,12.40
2023-02-19T03:50:36.870Z,15.28
2023-02-19T03:56:22.507Z,17.20
2023-02-19T04:01:55.332Z,10.20
2023-02-19T04:07:18.210Z,17.75
2023-02-19T04:12:44.147Z,8.75
2023-02-19T04:18:20.227Z,13.20
2023-02-19T04:23:47.282Z,12.43
2023-02-19T04:29:09.601Z,12.68
2023-02-19T04:34:31.911Z,12.18
2023-02-19T04:39:54.129Z,13.45
2023-02-19T04:45:16.618Z,12.40
2023-02-19T04:50:40.144Z,14.98
2023-02-19T04:56:02.498Z,9.48
2023-02-19T05:01:25.240Z,10.93
2023-02-19T05:06:48.089Z,13.28
2023-02-19T05:12:10.846Z,13.58
2023-02-19T05:17:33.028Z,12.68
2023-02-19T05:22:55.229Z,15.53
2023-02-19T05:28:20.467Z,12.07
2023-02-19T05:33:44.603Z,17.90
2023-02-19T05:39:09.714Z,13.30
2023-02-19T05:44:31.887Z,13.85
2023-02-19T05:49:54.167Z,16.52
2023-02-19T05:55:17.632Z,17.57
2023-02-19T06:00:40.254Z,16.55
2023-02-19T06:06:02.507Z,14.90
2023-02-19T06:11:25.081Z,15.08
2023-02-19T06:16:47.486Z,15.13
2023-02-19T06:22:09.672Z,14.90
2023-02-19T06:27:31.923Z,11.40
2023-02-19T06:32:54.674Z,12.30
2023-02-19T06:38:16.856Z,14.55
2023-02-19T06:43:39.410Z,13.25
2023-02-19T06:49:02.819Z,17.30
2023-02-19T06:54:26.560Z,12.45
2023-02-19T06:59:48.880Z,13.60
2023-02-19T07:05:11.335Z,11.30
2023-02-19T07:10:33.616Z,10.77
2023-02-19T07:15:55.835Z,10.82
2023-02-19T07:21:25.304Z,12.03
2023-02-19T07:26:50.237Z,17.00
2023-02-19T07:32:14.022Z,12.37
2023-02-19T07:37:37.854Z,15.50
2023-02-19T07:43:01.029Z,16.52
2023-02-19T07:48:26.532Z,11.12
2023-02-19T07:53:54.211Z,13.78
2023-02-19T07:59:20.255Z,13.50
2023-02-19T08:04:46.297Z,13.93
2023-02-19T08:10:28.903Z,14.15
2023-02-19T08:15:56.292Z,20.30
2023-02-19T08:21:21.340Z,12.25
2023-02-19T08:26:43.807Z,13.70
2023-02-19T08:32:06.209Z,12.15
2023-02-19T08:37:29.165Z,10.30
2023-02-19T08:42:52.756Z,12.05
2023-02-19T08:48:18.678Z,13.10
2023-02-19T08:53:45.862Z,11.12
2023-02-19T08:59:08.993Z,16.23
2023-02-19T09:04:32.135Z,10.98
2023-02-19T09:09:58.247Z,12.73
2023-02-19T09:15:21.006Z,10.28
2023-02-19T09:20:43.466Z,12.90
2023-02-19T09:26:14.426Z,12.47
2023-02-19T09:31:37.172Z,13.13
2023-02-19T09:37:02.627Z,8.00
2023-02-19T09:42:33.104Z,12.93
2023-02-19T09:47:55.671Z,10.85
2023-02-19T09:53:25.425Z,10.18
2023-02-19T09:59:09.862Z,9.87
2023-02-19T10:04:32.052Z,7.90
2023-02-19T10:10:06.726Z,12.37
2023-02-19T10:16:00.331Z,8.83
2023-02-19T10:21:25.248Z,13.67
2023-02-19T10:26:47.534Z,11.47
2023-02-19T10:37:58.579Z,11.53
2023-02-19T10:43:30.165Z,6.37
2023-02-19T10:48:59.731Z,9.43
2023-02-19T10:54:32.814Z,10.30
2023-02-19T11:00:09.608Z,14.43
2023-02-19T11:05:33.914Z,10.23
2023-02-19T11:11:01.028Z,4.73
2023-02-19T11:16:24.776Z,8.27
2023-02-19T11:21:48.808Z,9.97
2023-02-19T11:27:12.452Z,6.67
2023-02-19T11:32:49.060Z,6.77
2023-02-19T11:38:18.214Z,14.63
2023-02-19T11:44:09.411Z,7.23
2023-02-19T11:49:57.728Z,5.03
2023-02-19T11:55:56.221Z,7.60
2023-02-19T12:07:49.575Z,4.13
2023-02-19T12:14:04.318Z,4.03
2023-02-19T12:19:57.248Z,5.37
2023-02-19T12:25:34.532Z,4.73
2023-02-19T12:31:16.963Z,4.00
2023-02-19T12:37:09.620Z,4.07
2023-02-19T12:42:50.980Z,2.63
2023-02-19T12:48:48.862Z,4.13
2023-02-19T12:54:33.783Z,4.20
2023-02-19T13:00:07.835Z,5.40
2023-02-19T13:06:20.633Z,1.90
2023-02-19T13:11:50.344Z,4.10
2023-02-19T13:17:35.664Z,4.87
2023-02-19T13:23:33.175Z,5.27
2023-02-19T13:29:47.970Z,4.37
2023-02-19T13:36:03.412Z,4.50
2023-02-19T13:41:38.158Z,3.87
2023-02-19T13:47:05.018Z,4.00
2023-02-19T13:52:44.124Z,4.40
2023-02-19T13:58:24.769Z,3.57
2023-02-19T14:04:03.854Z,4.27
2023-02-19T14:09:47.084Z,3.53
2023-02-19T14:15:28.627Z,4.13
2023-02-19T14:20:57.109Z,4.37
2023-02-19T14:26:20.608Z,6.53
2023-02-19T14:31:50.658Z,3.47
2023-02-19T14:42:35.246Z,2.67
2023-02-19T14:47:59.626Z,4.33
2023-02-19T14:53:25.223Z,2.57
2023-02-19T14:58:49.254Z,2.13
2023-02-19T15:04:13.260Z,1.80
2023-02-19T15:09:37.989Z,4.13
2023-02-19T15:15:02.882Z,3.05
2023-02-19T15:20:31.407Z,4.13
2023-02-19T15:25:55.761Z,7.17
2023-02-19T15:31:21.681Z,4.50
2023-02-19T15:36:47.370Z,4.47
2023-02-19T15:42:15.765Z,2.35
2023-02-19T15:48:03.473Z,4.97
2023-02-19T15:53:34.579Z,3.83
2023-02-19T15:59:10.507Z,4.93
2023-02-19T16:04:34.066Z,5.57
2023-02-19T16:09:59.589Z,7.30
2023-02-19T16:15:27.224Z,6.87
2023-02-19T16:20:51.162Z,5.43
2023-02-19T16:26:22.997Z,5.03
2023-02-19T16:31:45.234Z,5.27
2023-02-19T16:37:09.006Z,5.70
2023-02-19T16:42:31.701Z,3.10
2023-02-19T16:47:55.661Z,7.80
2023-02-19T16:53:26.683Z,3.47
2023-02-19T16:58:48.915Z,6.40
2023-02-19T17:04:19.663Z,4.97
2023-02-19T17:09:42.011Z,6.37
2023-02-19T17:15:04.400Z,7.57
2023-02-19T17:20:39.526Z,8.28
2023-02-19T17:26:01.908Z,5.87
2023-02-19T17:31:24.984Z,7.90
2023-02-19T17:36:48.408Z,5.90
2023-02-19T17:42:11.444Z,9.43
2023-02-19T17:47:33.935Z,8.87
2023-02-19T17:52:56.164Z,11.90
2023-02-19T17:58:18.958Z,6.53
2023-02-19T18:03:41.784Z,11.22
2023-02-19T18:09:08.883Z,12.20
2023-02-19T18:14:31.570Z,11.67
2023-02-19T18:19:55.454Z,14.05
2023-02-19T18:25:18.378Z,13.50
2023-02-19T18:30:41.480Z,15.07
2023-02-19T18:36:03.968Z,17.03
2023-02-19T18:41:28.065Z,12.33
2023-02-19T18:46:50.268Z,15.00
2023-02-19T18:52:13.360Z,13.63
2023-02-19T18:57:36.951Z,9.87
2023-02-19T19:03:05.353Z,13.93
2023-02-19T19:08:30.537Z,11.50
2023-02-19T19:13:52.635Z,16.10
2023-02-19T19:19:15.636Z,16.10
2023-02-19T19:24:37.989Z,18.57
2023-02-19T19:30:00.505Z,14.23
2023-02-19T19:35:24.396Z,13.45
2023-02-19T19:40:48.882Z,18.00
2023-02-19T19:46:15.238Z,16.50
2023-02-19T19:51:46.473Z,16.60
2023-02-19T19:57:11.526Z,14.60
2023-02-19T20:02:36.319Z,18.10
2023-02-19T20:08:00.667Z,15.03
2023-02-19T20:13:26.748Z,15.68
2023-02-19T20:18:49.669Z,14.78
2023-02-19T20:24:12.974Z,16.12
2023-02-19T20:29:37.364Z,15.13
2023-02-19T20:35:00.783Z,15.83
2023-02-19T20:40:27.063Z,15.05
2023-02-19T20:45:51.884Z,12.28
2023-02-19T20:51:16.204Z,11.60
2023-02-19T20:56:39.994Z,11.03
2023-02-19T21:02:05.619Z,11.70
2023-02-19T21:07:30.655Z,11.90
2023-02-19T21:12:56.735Z,7.97
2023-02-19T21:18:21.296Z,12.82
2023-02-19T21:23:45.858Z,9.60
2023-02-19T21:29:14.400Z,9.50
2023-02-19T21:34:41.378Z,10.88
2023-02-19T21:40:06.270Z,6.83
2023-02-19T21:45:30.751Z,9.45
2023-02-19T21:50:55.392Z,8.43
2023-02-19T21:56:21.657Z,12.73
2023-02-19T22:01:51.417Z,12.07
2023-02-19T22:07:15.615Z,8.30
2023-02-19T22:12:40.207Z,11.38
2023-02-19T22:18:05.279Z,9.93
2023-02-19T22:23:29.515Z,8.33
2023-02-19T22:28:53.783Z,8.70
2023-02-19T22:34:18.787Z,10.43
2023-02-19T22:39:44.106Z,11.97
2023-02-19T22:45:07.709Z,6.92
2023-02-19T22:50:38.147Z,10.40
2023-02-19T22:56:02.894Z,10.90
2023-02-19T23:01:28.421Z,9.43
2023-02-19T23:06:55.556Z,11.45
2023-02-19T23:12:24.586Z,6.75
2023-02-19T23:17:48.464Z,9.73
2023-02-19T23:23:11.464Z,10.63
2023-02-19T23:28:36.627Z,11.55
2023-02-19T23:34:00.911Z,10.68
2023-02-19T23:39:27.040Z,13.93
2023-02-19T23:44:53.289Z,9.63
2023-02-19T23:50:17.604Z,10.00
2023-02-19T23:55:41.456Z,8.90
